Neilburg, Canada
Current Conditions -  °F | °C
As of 4:00 AM on Tuesday 21 Oct 2014 (Local Time) from CYLL Reporting Station
Clear Clear  
Wind Chill:   Ceiling: Unl
Heat Index:   Visibility: 9mi
Dew Point:   Wind: 15mph
Humidity: 57%   Direction: 200°SSW
Pressure: 29.49"   Gusts: NA
Location:  52.83°N, 109.63°W
Report Text: CYLL 210900Z AUTO 20013KT 9SM CLR 08/00 A2949 RMK SLP994 DENSITY ALT 2300FT
Loading
Personal Weather Stations






























Interactive Weather Map
Tropical Storm Tracking
New forecast layout! Learn more

10-Day Weather Forecast

Advertisements
Track Severe Weather on mobile